createdAt,value
2017-12-19T00:00:50.172Z,61.20
2017-12-19T00:01:52.633Z,61.22
2017-12-19T00:02:55.114Z,61.29
2017-12-19T00:03:57.593Z,61.32
2017-12-19T00:05:00.064Z,61.40
2017-12-19T00:06:02.582Z,61.45
2017-12-19T00:07:05.042Z,61.46
2017-12-19T00:08:07.505Z,61.44
2017-12-19T00:09:09.986Z,61.21
2017-12-19T00:10:12.455Z,61.41
2017-12-19T00:11:14.933Z,61.26
2017-12-19T00:12:17.404Z,61.38
2017-12-19T00:13:19.885Z,61.23
2017-12-19T00:14:22.378Z,61.21
2017-12-19T00:15:24.846Z,61.28
2017-12-19T00:16:27.324Z,61.29
2017-12-19T00:17:29.811Z,61.41
2017-12-19T00:18:32.266Z,61.41
2017-12-19T00:19:34.726Z,61.43
2017-12-19T00:20:37.187Z,61.54
2017-12-19T00:21:39.646Z,61.58
2017-12-19T00:22:42.140Z,61.60
2017-12-19T00:23:44.645Z,61.70
2017-12-19T00:24:47.125Z,61.69
2017-12-19T00:25:49.591Z,61.68
2017-12-19T00:26:52.105Z,61.72
2017-12-19T00:27:54.609Z,61.80
2017-12-19T00:28:57.071Z,61.77
2017-12-19T00:29:59.534Z,61.91
2017-12-19T00:31:02.017Z,61.92
2017-12-19T00:32:04.497Z,61.90
2017-12-19T00:33:06.997Z,61.77
2017-12-19T00:34:09.508Z,61.88
2017-12-19T00:35:11.987Z,61.95
2017-12-19T00:36:14.461Z,61.93
2017-12-19T00:37:16.942Z,62.04
2017-12-19T00:38:19.413Z,62.10
2017-12-19T00:39:21.889Z,62.11
2017-12-19T00:40:24.372Z,61.98
2017-12-19T00:41:26.866Z,61.98
2017-12-19T00:42:29.354Z,62.01
2017-12-19T00:43:31.813Z,62.00
2017-12-19T00:44:34.294Z,61.88
2017-12-19T00:45:37.214Z,61.98
2017-12-19T00:46:39.692Z,61.98
2017-12-19T00:47:42.166Z,61.93
2017-12-19T00:48:44.638Z,61.81
2017-12-19T00:49:47.120Z,61.93
2017-12-19T00:50:49.605Z,61.98
2017-12-19T00:51:52.097Z,62.00
2017-12-19T00:52:54.560Z,61.91
2017-12-19T00:53:57.035Z,61.95
2017-12-19T00:54:59.498Z,62.05
2017-12-19T00:56:01.985Z,62.00
2017-12-19T00:57:04.461Z,62.02
2017-12-19T00:58:06.941Z,61.95
2017-12-19T00:59:09.420Z,61.98
2017-12-19T01:00:12.061Z,61.94
2017-12-19T01:01:14.532Z,61.97
2017-12-19T01:02:16.995Z,62.00
2017-12-19T01:03:19.478Z,62.03
2017-12-19T01:04:21.942Z,62.07
2017-12-19T01:05:24.479Z,62.11
2017-12-19T01:06:26.950Z,62.08
2017-12-19T01:07:29.436Z,62.11
2017-12-19T01:08:31.933Z,62.19
2017-12-19T01:09:34.454Z,62.28
2017-12-19T01:10:36.939Z,62.13
2017-12-19T01:11:39.429Z,62.24
2017-12-19T01:12:41.923Z,62.22
2017-12-19T01:13:44.400Z,62.27
2017-12-19T01:14:46.887Z,62.44
2017-12-19T01:15:49.374Z,62.57
2017-12-19T01:16:51.839Z,62.64
2017-12-19T01:17:54.984Z,62.72
2017-12-19T01:18:57.482Z,62.81
2017-12-19T01:19:59.955Z,62.86
2017-12-19T01:21:02.418Z,62.85
2017-12-19T01:22:04.883Z,62.79
2017-12-19T01:23:07.353Z,62.78
2017-12-19T01:24:09.841Z,62.69
2017-12-19T01:25:12.302Z,62.67
2017-12-19T01:26:14.796Z,62.81
2017-12-19T01:27:17.257Z,62.84
2017-12-19T01:28:19.765Z,62.87
2017-12-19T01:29:22.230Z,62.86
2017-12-19T01:30:24.719Z,62.87
2017-12-19T01:31:27.190Z,62.92
2017-12-19T01:32:29.673Z,62.76
2017-12-19T01:33:32.297Z,62.85
2017-12-19T01:34:34.801Z,62.87
2017-12-19T01:35:37.285Z,62.92
2017-12-19T01:36:39.759Z,62.99
2017-12-19T01:37:42.250Z,63.10
2017-12-19T01:38:44.713Z,63.11
2017-12-19T01:39:47.183Z,62.99
2017-12-19T01:40:49.676Z,62.83
2017-12-19T01:41:52.134Z,62.69
2017-12-19T01:42:54.610Z,62.56
2017-12-19T01:43:57.088Z,62.59
2017-12-19T01:44:59.574Z,62.83
2017-12-19T01:46:02.050Z,62.84
2017-12-19T01:47:04.546Z,62.88
2017-12-19T01:48:07.034Z,62.85
2017-12-19T01:49:09.517Z,62.91
2017-12-19T01:50:11.993Z,63.10
2017-12-19T01:51:14.476Z,63.06
2017-12-19T01:52:16.964Z,63.06
2017-12-19T01:53:19.456Z,63.02
2017-12-19T01:54:21.937Z,62.98
2017-12-19T01:55:24.421Z,62.86
2017-12-19T01:56:26.910Z,62.94
2017-12-19T01:57:29.372Z,63.42
2017-12-19T01:58:31.851Z,63.68
2017-12-19T01:59:34.330Z,63.75
2017-12-19T02:00:36.800Z,63.74
2017-12-19T02:01:39.292Z,63.71
2017-12-19T02:02:41.776Z,63.75
2017-12-19T02:03:44.259Z,63.76
2017-12-19T02:04:46.737Z,63.79
2017-12-19T02:05:49.212Z,63.79
2017-12-19T02:06:51.688Z,63.78
2017-12-19T02:07:54.966Z,63.72
2017-12-19T02:08:57.435Z,63.84
2017-12-19T02:09:59.919Z,63.87
2017-12-19T02:11:02.391Z,63.91
2017-12-19T02:12:04.881Z,63.92
2017-12-19T02:13:07.343Z,63.98
2017-12-19T02:14:09.821Z,63.96
2017-12-19T02:15:12.300Z,63.90
2017-12-19T02:16:14.794Z,64.11
2017-12-19T02:17:17.274Z,64.10
2017-12-19T02:18:19.747Z,64.20
2017-12-19T02:19:22.279Z,64.16
2017-12-19T02:20:24.761Z,64.15
2017-12-19T02:21:27.253Z,64.13
2017-12-19T02:22:29.722Z,64.16
2017-12-19T02:23:32.238Z,64.03
2017-12-19T02:24:34.699Z,63.78
2017-12-19T02:25:37.205Z,63.72
2017-12-19T02:26:39.674Z,63.74
2017-12-19T02:27:42.457Z,63.89
2017-12-19T02:28:44.933Z,63.99
2017-12-19T02:29:47.409Z,64.04
2017-12-19T02:30:49.902Z,64.05
2017-12-19T02:31:52.389Z,64.09
2017-12-19T02:32:54.867Z,64.06
2017-12-19T02:33:57.342Z,64.04
2017-12-19T02:34:59.821Z,63.98
2017-12-19T02:36:02.300Z,63.97
2017-12-19T02:37:04.766Z,64.02
2017-12-19T02:38:07.249Z,63.98
2017-12-19T02:39:09.707Z,64.02
2017-12-19T02:40:12.188Z,63.97
2017-12-19T02:41:14.649Z,63.89
2017-12-19T02:42:17.130Z,63.57
2017-12-19T02:43:22.480Z,63.29
2017-12-19T02:44:24.969Z,63.17
2017-12-19T02:45:27.439Z,63.42
2017-12-19T02:46:29.898Z,63.71
2017-12-19T02:47:32.374Z,63.76
2017-12-19T02:48:34.838Z,63.81
2017-12-19T02:49:37.294Z,63.83
2017-12-19T02:50:39.769Z,63.97
2017-12-19T02:51:42.226Z,64.02
2017-12-19T02:52:44.708Z,63.99
2017-12-19T02:53:47.166Z,63.93
2017-12-19T02:54:49.714Z,63.85
2017-12-19T02:55:52.241Z,63.84
2017-12-19T02:56:54.719Z,63.80
2017-12-19T02:57:57.198Z,63.78
2017-12-19T02:58:59.672Z,63.84
2017-12-19T03:00:02.131Z,63.81
2017-12-19T03:01:04.622Z,63.92
2017-12-19T03:02:07.097Z,63.93
2017-12-19T03:03:09.558Z,63.91
2017-12-19T03:04:12.027Z,64.00
2017-12-19T03:05:14.491Z,63.86
2017-12-19T03:06:16.958Z,63.86
2017-12-19T03:07:19.423Z,63.84
2017-12-19T03:08:21.900Z,63.81
2017-12-19T03:09:24.367Z,63.88
2017-12-19T03:10:26.845Z,63.86
2017-12-19T03:11:29.339Z,63.71
2017-12-19T03:12:31.821Z,63.58
2017-12-19T03:13:34.282Z,63.61
2017-12-19T03:14:36.743Z,63.71
2017-12-19T03:15:39.233Z,63.72
2017-12-19T03:16:41.699Z,63.68
2017-12-19T03:17:44.166Z,63.61
2017-12-19T03:18:46.648Z,63.75
2017-12-19T03:19:49.134Z,64.02
2017-12-19T03:20:51.624Z,64.28
2017-12-19T03:21:54.086Z,64.35
2017-12-19T03:22:56.577Z,64.36
2017-12-19T03:23:59.905Z,64.19
2017-12-19T03:25:02.366Z,64.15
2017-12-19T03:26:04.858Z,64.15
2017-12-19T03:27:07.349Z,64.10
2017-12-19T03:28:09.811Z,64.13
2017-12-19T03:29:12.283Z,64.21
2017-12-19T03:30:14.795Z,64.21
2017-12-19T03:31:17.272Z,64.27
2017-12-19T03:32:19.757Z,64.43
2017-12-19T03:33:22.238Z,64.38
2017-12-19T03:34:24.725Z,64.42
2017-12-19T03:35:27.201Z,64.55
2017-12-19T03:36:29.671Z,64.52
2017-12-19T03:37:32.157Z,64.54
2017-12-19T03:38:34.647Z,64.57
2017-12-19T03:39:37.153Z,64.55
2017-12-19T03:40:39.641Z,64.51
2017-12-19T03:41:42.115Z,64.42
2017-12-19T03:42:44.604Z,64.38
2017-12-19T03:43:47.075Z,64.46
2017-12-19T03:44:49.540Z,64.47
2017-12-19T03:45:52.020Z,64.42
2017-12-19T03:46:54.483Z,64.46
2017-12-19T03:47:56.964Z,64.46
2017-12-19T03:48:59.444Z,64.46
2017-12-19T03:50:01.933Z,64.46
2017-12-19T03:51:04.416Z,64.50
2017-12-19T03:52:06.891Z,64.46
2017-12-19T03:53:09.368Z,64.39
2017-12-19T03:54:11.821Z,64.49
2017-12-19T03:55:14.301Z,64.46
2017-12-19T03:56:16.758Z,64.47
2017-12-19T03:57:19.219Z,64.50
2017-12-19T03:58:21.686Z,64.52
2017-12-19T03:59:24.156Z,64.44
2017-12-19T04:00:26.643Z,64.38
2017-12-19T04:01:29.130Z,64.53
2017-12-19T04:02:31.607Z,64.94
2017-12-19T04:03:34.085Z,64.89
2017-12-19T04:04:36.542Z,65.11
2017-12-19T04:05:39.029Z,65.25
2017-12-19T04:06:41.495Z,65.04
2017-12-19T04:07:43.983Z,64.80
2017-12-19T04:08:46.462Z,64.74
2017-12-19T04:09:48.976Z,64.76
2017-12-19T04:10:51.447Z,64.82
2017-12-19T04:11:53.916Z,64.81
2017-12-19T04:12:56.404Z,64.81
2017-12-19T04:13:58.900Z,64.81
2017-12-19T04:15:01.380Z,64.70
2017-12-19T04:16:03.874Z,64.66
2017-12-19T04:17:06.365Z,64.79
2017-12-19T04:18:08.853Z,64.90
2017-12-19T04:19:11.323Z,64.84
2017-12-19T04:20:13.797Z,64.83
2017-12-19T04:21:16.281Z,64.83
2017-12-19T04:22:18.756Z,64.93
2017-12-19T04:23:21.244Z,64.99
2017-12-19T04:24:23.728Z,65.18
2017-12-19T04:25:26.213Z,65.24
2017-12-19T04:26:28.671Z,65.31
2017-12-19T04:27:31.183Z,65.38
2017-12-19T04:28:33.664Z,65.49
2017-12-19T04:29:36.152Z,65.48
2017-12-19T04:30:38.615Z,65.45
2017-12-19T04:31:41.078Z,65.47
2017-12-19T04:32:43.578Z,65.43
2017-12-19T04:33:46.049Z,65.46
2017-12-19T04:34:48.537Z,65.50
2017-12-19T04:35:51.009Z,65.23
2017-12-19T04:36:53.466Z,64.76
2017-12-19T04:37:55.964Z,64.62
2017-12-19T04:38:58.440Z,64.76
2017-12-19T04:40:00.917Z,65.06
2017-12-19T04:41:03.447Z,65.36
2017-12-19T04:42:05.942Z,65.38
2017-12-19T04:43:08.394Z,65.42
2017-12-19T04:44:10.921Z,65.47
2017-12-19T04:45:13.386Z,65.47
2017-12-19T04:46:15.872Z,65.48
2017-12-19T04:47:18.352Z,65.60
2017-12-19T04:48:20.829Z,65.62
2017-12-19T04:49:23.344Z,65.50
2017-12-19T04:50:25.802Z,65.50
2017-12-19T04:51:28.263Z,65.52
2017-12-19T04:52:30.722Z,65.43
2017-12-19T04:53:33.197Z,65.45
2017-12-19T04:54:35.678Z,65.46
2017-12-19T04:55:38.134Z,65.44
2017-12-19T04:56:40.592Z,65.37
2017-12-19T04:57:43.170Z,65.08
2017-12-19T04:58:45.632Z,65.15
2017-12-19T04:59:48.112Z,65.12
2017-12-19T05:00:50.572Z,65.36
2017-12-19T05:01:53.036Z,65.40
2017-12-19T05:02:55.501Z,65.37
2017-12-19T05:03:58.000Z,65.21
2017-12-19T05:05:00.500Z,65.01
2017-12-19T05:06:02.970Z,65.04
2017-12-19T05:07:05.443Z,65.22
2017-12-19T05:08:07.910Z,65.29
2017-12-19T05:09:10.392Z,65.39
2017-12-19T05:10:12.880Z,65.50
2017-12-19T05:11:15.364Z,65.60
2017-12-19T05:12:17.888Z,65.53
2017-12-19T05:13:20.355Z,65.44
2017-12-19T05:14:22.844Z,65.39
2017-12-19T05:15:25.361Z,65.38
2017-12-19T05:16:27.827Z,65.39
2017-12-19T05:17:30.305Z,65.30
2017-12-19T05:18:32.778Z,65.25
2017-12-19T05:19:35.251Z,65.22
2017-12-19T05:20:37.713Z,65.30
2017-12-19T05:21:40.183Z,65.46
2017-12-19T05:22:42.661Z,65.41
2017-12-19T05:23:45.145Z,65.49
2017-12-19T05:24:47.889Z,65.31
2017-12-19T05:25:50.370Z,65.23
2017-12-19T05:26:52.848Z,65.21
2017-12-19T05:27:55.470Z,65.16
2017-12-19T05:28:57.995Z,65.26
2017-12-19T05:30:00.460Z,65.26
2017-12-19T05:31:02.936Z,65.29
2017-12-19T05:32:05.506Z,65.23
2017-12-19T05:33:08.001Z,65.21
2017-12-19T05:34:10.480Z,65.14
2017-12-19T05:35:12.955Z,65.18
2017-12-19T05:36:15.916Z,65.24
2017-12-19T05:37:18.396Z,65.29
2017-12-19T05:38:20.884Z,65.32
2017-12-19T05:39:23.350Z,65.25
2017-12-19T05:40:25.824Z,65.18
2017-12-19T05:41:28.342Z,65.10
2017-12-19T05:42:30.833Z,65.04
2017-12-19T05:43:33.477Z,65.08
2017-12-19T05:44:35.953Z,65.29
2017-12-19T05:45:38.436Z,65.46
2017-12-19T05:46:40.939Z,65.62
2017-12-19T05:47:43.431Z,65.71
2017-12-19T05:48:45.919Z,65.85
2017-12-19T05:49:48.401Z,65.99
2017-12-19T05:50:50.889Z,65.96
2017-12-19T05:51:53.382Z,65.73
2017-12-19T05:52:55.889Z,65.55
2017-12-19T05:53:58.393Z,65.68
2017-12-19T05:55:00.858Z,65.87
2017-12-19T05:56:03.330Z,65.94
2017-12-19T05:57:05.812Z,65.90
2017-12-19T05:58:08.302Z,65.85
2017-12-19T05:59:10.788Z,65.98
2017-12-19T06:00:13.294Z,66.03
2017-12-19T06:01:15.787Z,65.81
2017-12-19T06:02:18.318Z,65.76
2017-12-19T06:03:20.794Z,65.73
2017-12-19T06:04:23.285Z,65.93
2017-12-19T06:05:25.764Z,65.83
2017-12-19T06:06:28.244Z,65.83
2017-12-19T06:07:30.714Z,65.91
2017-12-19T06:08:33.200Z,65.81
2017-12-19T06:09:35.685Z,65.79
2017-12-19T06:10:38.165Z,65.55
2017-12-19T06:11:40.654Z,65.60
2017-12-19T06:12:43.138Z,65.80
2017-12-19T06:13:45.629Z,65.98
2017-12-19T06:14:48.127Z,65.80
2017-12-19T06:15:50.595Z,65.80
2017-12-19T06:16:53.063Z,65.81
2017-12-19T06:17:55.549Z,65.87
2017-12-19T06:18:58.027Z,65.78
2017-12-19T06:20:00.514Z,65.75
2017-12-19T06:21:03.009Z,65.75
2017-12-19T06:22:05.495Z,65.69
2017-12-19T06:23:07.962Z,65.66
2017-12-19T06:24:10.431Z,65.69
2017-12-19T06:25:12.916Z,65.57
2017-12-19T06:26:15.386Z,65.49
2017-12-19T06:27:18.348Z,65.48
2017-12-19T06:28:20.827Z,65.43
2017-12-19T06:29:23.298Z,65.41
2017-12-19T06:30:25.763Z,65.39
2017-12-19T06:31:28.236Z,65.45
2017-12-19T06:32:30.707Z,65.52
2017-12-19T06:33:33.198Z,65.79
2017-12-19T06:34:35.688Z,65.87
2017-12-19T06:35:38.158Z,65.83
2017-12-19T06:36:40.627Z,65.73
2017-12-19T06:37:43.108Z,65.59
2017-12-19T06:38:45.579Z,65.46
2017-12-19T06:39:48.078Z,65.38
2017-12-19T06:40:50.558Z,65.32
2017-12-19T06:41:53.022Z,65.31
2017-12-19T06:42:55.515Z,65.36
2017-12-19T06:43:58.009Z,65.56
2017-12-19T06:45:00.570Z,65.73
2017-12-19T06:46:03.075Z,65.90
2017-12-19T06:47:05.543Z,66.08
2017-12-19T06:48:08.028Z,65.87
2017-12-19T06:49:10.520Z,65.69
2017-12-19T06:50:12.991Z,65.54
2017-12-19T06:51:15.466Z,65.48
2017-12-19T06:52:18.105Z,65.50
2017-12-19T06:53:20.574Z,65.54
2017-12-19T06:54:23.097Z,65.72
2017-12-19T06:55:25.581Z,65.99
2017-12-19T06:56:28.068Z,66.19
2017-12-19T06:57:30.552Z,66.19
2017-12-19T06:58:33.019Z,66.04
2017-12-19T06:59:35.498Z,65.80
2017-12-19T07:00:37.989Z,65.86
2017-12-19T07:01:40.473Z,66.07
2017-12-19T07:02:42.957Z,66.07
2017-12-19T07:03:45.441Z,65.96
2017-12-19T07:04:47.925Z,65.96
2017-12-19T07:05:50.390Z,65.98
2017-12-19T07:06:52.894Z,65.99
2017-12-19T07:07:55.386Z,66.03
2017-12-19T07:08:58.005Z,66.01
2017-12-19T07:10:00.493Z,66.01
2017-12-19T07:11:02.989Z,65.94
2017-12-19T07:12:05.475Z,65.97
2017-12-19T07:13:08.162Z,65.98
2017-12-19T07:14:10.642Z,65.86
2017-12-19T07:15:13.124Z,65.87
2017-12-19T07:16:15.609Z,65.99
2017-12-19T07:17:18.075Z,66.07
2017-12-19T07:18:20.543Z,66.08
2017-12-19T07:19:23.019Z,65.98
2017-12-19T07:20:25.504Z,65.88
2017-12-19T07:21:27.986Z,65.90
2017-12-19T07:22:30.455Z,65.99
2017-12-19T07:23:32.948Z,66.21
2017-12-19T07:24:35.445Z,66.17
2017-12-19T07:25:37.937Z,66.03
2017-12-19T07:26:40.402Z,66.03
2017-12-19T07:27:42.874Z,66.13
2017-12-19T07:28:45.343Z,66.17
2017-12-19T07:29:47.824Z,66.11
2017-12-19T07:30:50.294Z,66.21
2017-12-19T07:31:52.784Z,66.20
2017-12-19T07:32:55.251Z,66.34
2017-12-19T07:33:57.723Z,66.58
2017-12-19T07:35:00.274Z,66.48
2017-12-19T07:36:04.264Z,66.27
2017-12-19T07:37:06.748Z,66.20
2017-12-19T07:38:09.284Z,66.29
2017-12-19T07:39:11.769Z,66.32
2017-12-19T07:40:14.254Z,66.17
2017-12-19T07:41:16.732Z,66.12
2017-12-19T07:42:19.217Z,66.36
2017-12-19T07:43:21.686Z,66.61
2017-12-19T07:44:24.169Z,66.79
2017-12-19T07:45:26.638Z,66.78
2017-12-19T07:46:29.121Z,66.69
2017-12-19T07:47:31.594Z,66.75
2017-12-19T07:48:34.082Z,66.68
2017-12-19T07:49:36.558Z,66.63
2017-12-19T07:50:39.026Z,66.70
2017-12-19T07:51:41.520Z,66.74
2017-12-19T07:52:44.100Z,66.66
2017-12-19T07:53:46.572Z,66.54
2017-12-19T07:54:49.038Z,66.65
2017-12-19T07:55:51.510Z,66.65
2017-12-19T07:56:54.000Z,66.67
2017-12-19T07:57:56.484Z,66.66
2017-12-19T07:58:58.950Z,66.62
2017-12-19T08:00:01.558Z,66.65
2017-12-19T08:01:04.065Z,66.60
2017-12-19T08:02:06.542Z,66.58
2017-12-19T08:03:09.014Z,66.58
2017-12-19T08:04:11.494Z,66.57
2017-12-19T08:05:13.983Z,66.57
2017-12-19T08:06:16.473Z,66.55
2017-12-19T08:07:18.957Z,66.55
2017-12-19T08:08:21.445Z,66.52
2017-12-19T08:09:23.965Z,66.49
2017-12-19T08:10:26.437Z,66.48
2017-12-19T08:11:28.910Z,66.43
2017-12-19T08:12:31.392Z,66.46
2017-12-19T08:13:33.881Z,66.46
2017-12-19T08:14:36.355Z,66.52
2017-12-19T08:15:38.841Z,66.50
2017-12-19T08:16:41.334Z,66.42
2017-12-19T08:17:43.806Z,66.41
2017-12-19T08:18:46.285Z,66.49
2017-12-19T08:19:48.750Z,66.51
2017-12-19T08:20:51.222Z,66.43
2017-12-19T08:21:53.711Z,66.40
2017-12-19T08:22:56.176Z,66.74
2017-12-19T08:23:58.669Z,65.27
2017-12-19T08:25:01.140Z,64.77
2017-12-19T08:26:03.628Z,64.17
2017-12-19T08:27:06.112Z,64.01
2017-12-19T08:28:08.590Z,64.02
2017-12-19T08:29:11.066Z,63.40
2017-12-19T08:30:13.553Z,63.30
2017-12-19T08:31:16.022Z,62.61
2017-12-19T08:32:18.516Z,61.99
2017-12-19T08:33:20.991Z,61.87
2017-12-19T08:34:23.483Z,61.31
2017-12-19T08:35:25.994Z,60.48
2017-12-19T08:36:28.483Z,60.84
2017-12-19T08:37:30.968Z,60.72
2017-12-19T08:38:33.457Z,60.64
2017-12-19T08:39:35.954Z,59.33
2017-12-19T08:40:38.440Z,58.76
2017-12-19T08:41:40.911Z,58.62
2017-12-19T08:42:43.504Z,57.26
2017-12-19T08:43:46.111Z,56.27
2017-12-19T08:44:48.601Z,55.64
2017-12-19T08:45:51.091Z,55.57
2017-12-19T08:46:53.581Z,55.32
2017-12-19T08:47:56.059Z,55.36
2017-12-19T08:48:58.539Z,55.16
2017-12-19T08:50:01.032Z,55.06
2017-12-19T08:51:03.508Z,55.41
2017-12-19T08:52:06.048Z,55.25
2017-12-19T08:53:08.492Z,55.27
2017-12-19T08:54:10.971Z,55.59
2017-12-19T08:55:13.460Z,54.97
2017-12-19T08:56:15.957Z,54.64
2017-12-19T08:57:18.472Z,55.25
2017-12-19T08:58:21.160Z,54.74
2017-12-19T08:59:23.680Z,54.66
2017-12-19T09:00:26.156Z,54.55
2017-12-19T09:01:28.677Z,54.07
2017-12-19T09:02:31.173Z,53.72
2017-12-19T09:03:33.670Z,53.34
2017-12-19T09:04:36.324Z,53.07
2017-12-19T09:05:38.875Z,52.68
2017-12-19T09:06:41.368Z,52.48
2017-12-19T09:07:43.874Z,52.38
2017-12-19T09:08:46.368Z,52.12
2017-12-19T09:09:48.938Z,52.17
2017-12-19T09:10:51.423Z,52.07
2017-12-19T09:11:53.973Z,51.93
2017-12-19T09:12:56.446Z,52.01
2017-12-19T09:13:58.975Z,52.20
2017-12-19T09:15:01.452Z,52.21
2017-12-19T09:16:03.944Z,52.25
2017-12-19T09:17:06.429Z,52.05
2017-12-19T09:18:08.961Z,52.11
2017-12-19T09:19:11.390Z,52.15
2017-12-19T09:20:13.877Z,52.10
2017-12-19T09:21:16.374Z,51.97
2017-12-19T09:22:18.843Z,51.88
2017-12-19T09:23:21.311Z,51.78
2017-12-19T09:24:23.788Z,51.86
2017-12-19T09:25:26.264Z,52.02
2017-12-19T09:26:28.803Z,52.12
2017-12-19T09:27:31.334Z,51.98
2017-12-19T09:28:33.828Z,52.02
2017-12-19T09:29:36.296Z,52.17
2017-12-19T09:30:38.774Z,52.30
2017-12-19T09:31:41.273Z,52.47
2017-12-19T09:32:43.753Z,52.67
2017-12-19T09:33:46.242Z,52.91
2017-12-19T09:34:48.711Z,53.05
2017-12-19T09:35:51.189Z,53.14
2017-12-19T09:36:53.689Z,53.25
2017-12-19T09:37:56.162Z,53.40
2017-12-19T09:38:58.639Z,53.48
2017-12-19T09:40:01.117Z,53.62
2017-12-19T09:41:03.595Z,53.77
2017-12-19T09:42:06.074Z,53.93
2017-12-19T09:43:08.569Z,54.04
2017-12-19T09:44:11.061Z,54.13
2017-12-19T09:45:13.548Z,54.23
2017-12-19T09:46:16.017Z,54.31
2017-12-19T09:47:18.506Z,54.53
2017-12-19T09:48:20.974Z,54.67
2017-12-19T09:49:23.442Z,54.77
2017-12-19T09:50:25.902Z,54.84
2017-12-19T09:51:28.393Z,54.87
2017-12-19T09:52:30.873Z,54.95
2017-12-19T09:53:33.354Z,55.06
2017-12-19T09:54:35.836Z,55.15
2017-12-19T09:55:38.305Z,55.22
2017-12-19T09:56:40.774Z,55.28
2017-12-19T09:57:43.266Z,55.36
2017-12-19T09:58:45.769Z,55.45
2017-12-19T09:59:48.244Z,55.51
2017-12-19T10:00:50.711Z,55.54
2017-12-19T10:01:53.201Z,55.56
2017-12-19T10:02:56.049Z,55.58
2017-12-19T10:03:58.528Z,55.60
2017-12-19T10:05:00.990Z,55.66
2017-12-19T10:06:03.471Z,55.67
2017-12-19T10:07:05.932Z,55.72
2017-12-19T10:08:08.413Z,55.78
2017-12-19T10:09:10.893Z,55.82
2017-12-19T10:10:13.378Z,55.84
2017-12-19T10:11:15.843Z,55.89
2017-12-19T10:12:18.307Z,55.93
2017-12-19T10:13:20.774Z,55.95
2017-12-19T10:14:23.312Z,55.93
2017-12-19T10:15:25.791Z,55.75
2017-12-19T10:16:28.281Z,55.66
2017-12-19T10:17:30.750Z,55.38
2017-12-19T10:18:33.245Z,55.17
2017-12-19T10:19:35.726Z,54.90
2017-12-19T10:20:38.221Z,54.57
2017-12-19T10:21:40.691Z,54.21
2017-12-19T10:22:43.230Z,53.95
2017-12-19T10:23:45.699Z,53.52
2017-12-19T10:24:48.182Z,53.12
2017-12-19T10:25:50.912Z,52.73
2017-12-19T10:26:53.386Z,52.58
2017-12-19T10:27:56.140Z,52.47
2017-12-19T10:28:58.708Z,52.30
2017-12-19T10:30:01.171Z,52.05
2017-12-19T10:31:04.128Z,52.00
2017-12-19T10:32:06.887Z,51.92
2017-12-19T10:33:09.371Z,51.88
2017-12-19T10:34:11.832Z,51.89
2017-12-19T10:35:14.298Z,51.80
2017-12-19T10:36:16.778Z,51.61
2017-12-19T10:37:19.244Z,51.37
2017-12-19T10:38:21.709Z,51.61
2017-12-19T10:39:24.194Z,51.55
2017-12-19T10:40:26.713Z,51.27
2017-12-19T10:41:29.201Z,51.20
2017-12-19T10:42:31.691Z,51.08
2017-12-19T10:43:34.155Z,50.98
2017-12-19T10:44:36.637Z,50.86
2017-12-19T10:45:39.114Z,50.66
2017-12-19T10:46:41.616Z,50.20
2017-12-19T10:47:44.094Z,49.84
2017-12-19T10:48:46.578Z,49.45
2017-12-19T10:49:49.120Z,49.26
2017-12-19T10:50:51.582Z,49.29
2017-12-19T10:51:54.046Z,49.48
2017-12-19T10:52:56.515Z,49.65
2017-12-19T10:53:58.997Z,49.85
2017-12-19T10:55:01.463Z,49.83
2017-12-19T10:56:03.975Z,49.93
2017-12-19T10:57:06.726Z,49.95
2017-12-19T10:58:09.207Z,50.08
2017-12-19T10:59:11.685Z,50.15
2017-12-19T11:00:14.154Z,50.28
2017-12-19T11:01:16.614Z,50.38
2017-12-19T11:02:19.114Z,50.45
2017-12-19T11:03:21.586Z,50.70
2017-12-19T11:04:24.107Z,50.84
2017-12-19T11:05:26.589Z,51.08
2017-12-19T11:06:29.053Z,51.25
2017-12-19T11:07:31.518Z,51.36
2017-12-19T11:08:33.983Z,51.60
2017-12-19T11:09:36.447Z,51.96
2017-12-19T11:10:38.928Z,52.13
2017-12-19T11:11:41.405Z,52.31
2017-12-19T11:12:43.880Z,52.27
2017-12-19T11:13:46.377Z,52.16
2017-12-19T11:14:48.842Z,52.16
2017-12-19T11:15:51.314Z,52.15
2017-12-19T11:16:53.778Z,52.20
2017-12-19T11:17:56.241Z,52.37
2017-12-19T11:18:58.729Z,52.30
2017-12-19T11:20:01.209Z,52.28
2017-12-19T11:21:03.693Z,52.41
2017-12-19T11:22:06.187Z,52.50
2017-12-19T11:23:08.669Z,52.58
2017-12-19T11:24:11.135Z,52.64
2017-12-19T11:25:13.616Z,52.60
2017-12-19T11:26:16.097Z,52.86
2017-12-19T11:27:18.562Z,52.88
2017-12-19T11:28:22.292Z,52.99
2017-12-19T11:29:24.750Z,52.98
2017-12-19T11:30:27.236Z,53.08
2017-12-19T11:31:29.716Z,53.15
2017-12-19T11:32:32.186Z,53.25
2017-12-19T11:33:34.702Z,53.38
2017-12-19T11:34:37.171Z,53.53
2017-12-19T11:35:39.647Z,53.98
2017-12-19T11:36:42.278Z,54.37
2017-12-19T11:37:44.758Z,54.63
2017-12-19T11:38:47.226Z,55.04
2017-12-19T11:39:49.707Z,55.11
2017-12-19T11:40:52.198Z,55.28
2017-12-19T11:41:54.680Z,55.90
2017-12-19T11:42:57.169Z,56.09
2017-12-19T11:43:59.639Z,56.14
2017-12-19T11:45:02.114Z,56.43
2017-12-19T11:46:04.596Z,56.60
2017-12-19T11:47:07.655Z,56.79
2017-12-19T11:48:10.115Z,57.10
2017-12-19T11:49:12.592Z,57.15
2017-12-19T11:50:15.073Z,57.41
2017-12-19T11:51:17.543Z,57.61
2017-12-19T11:52:20.079Z,57.73
2017-12-19T11:53:22.579Z,57.92
2017-12-19T11:54:25.047Z,57.87
2017-12-19T11:55:27.533Z,57.86
2017-12-19T11:56:30.099Z,57.92
2017-12-19T11:57:32.581Z,57.95
2017-12-19T11:58:35.046Z,57.93
2017-12-19T11:59:37.534Z,57.93
2017-12-19T12:00:40.012Z,57.84
2017-12-19T12:01:42.494Z,57.82
2017-12-19T12:02:45.158Z,57.77
2017-12-19T12:03:47.623Z,57.73
2017-12-19T12:04:50.156Z,57.67
2017-12-19T12:05:52.636Z,57.58
2017-12-19T12:06:55.099Z,57.62
2017-12-19T12:07:57.705Z,57.56
2017-12-19T12:09:00.171Z,57.55
2017-12-19T12:10:02.643Z,57.54
2017-12-19T12:11:05.125Z,57.52
2017-12-19T12:12:07.591Z,57.52
2017-12-19T12:13:10.059Z,57.51
2017-12-19T12:14:12.622Z,57.51
2017-12-19T12:15:15.091Z,57.51
2017-12-19T12:16:17.609Z,57.49
2017-12-19T12:17:20.087Z,57.47
2017-12-19T12:18:22.569Z,57.47
2017-12-19T12:19:25.052Z,57.46
2017-12-19T12:20:27.528Z,57.53
2017-12-19T12:21:30.010Z,57.52
2017-12-19T12:22:32.492Z,57.57
2017-12-19T12:23:34.973Z,57.47
2017-12-19T12:24:37.454Z,57.50
2017-12-19T12:25:39.918Z,57.48
2017-12-19T12:26:42.403Z,57.44
2017-12-19T12:27:44.862Z,57.53
2017-12-19T12:28:47.326Z,57.65
2017-12-19T12:29:49.957Z,57.72
2017-12-19T12:30:52.789Z,57.84
2017-12-19T12:31:55.338Z,58.01
2017-12-19T12:32:57.802Z,58.13
2017-12-19T12:34:00.271Z,58.24
2017-12-19T12:35:02.748Z,58.38
2017-12-19T12:36:05.231Z,58.62
2017-12-19T12:37:07.708Z,58.61
2017-12-19T12:38:11.230Z,58.67
2017-12-19T12:39:13.995Z,58.71
2017-12-19T12:40:16.473Z,58.78
2017-12-19T12:41:18.954Z,58.85
2017-12-19T12:42:21.427Z,58.95
2017-12-19T12:43:24.278Z,59.10
2017-12-19T12:44:26.750Z,59.18
2017-12-19T12:45:29.231Z,59.22
2017-12-19T12:46:31.721Z,59.22
2017-12-19T12:47:34.218Z,59.19
2017-12-19T12:48:36.714Z,59.28
2017-12-19T12:49:39.188Z,59.39
2017-12-19T12:50:41.672Z,59.42
2017-12-19T12:51:44.146Z,59.46
2017-12-19T12:52:46.623Z,59.53
2017-12-19T12:53:49.102Z,59.47
2017-12-19T12:54:51.592Z,59.51
2017-12-19T12:55:54.081Z,59.54
2017-12-19T12:56:56.556Z,59.57
2017-12-19T12:57:59.052Z,59.64
2017-12-19T12:59:01.523Z,59.71
2017-12-19T13:00:03.994Z,59.78
2017-12-19T13:01:06.460Z,59.87
2017-12-19T13:02:09.010Z,59.94
2017-12-19T13:03:11.522Z,59.97
2017-12-19T13:04:13.997Z,60.02
2017-12-19T13:05:16.472Z,60.09
2017-12-19T13:06:18.948Z,60.11
2017-12-19T13:07:21.428Z,60.15
2017-12-19T13:08:23.909Z,60.18
2017-12-19T13:09:26.380Z,60.21
2017-12-19T13:10:28.842Z,60.26
2017-12-19T13:11:31.322Z,60.30
2017-12-19T13:12:33.799Z,60.33
2017-12-19T13:13:36.259Z,60.37
2017-12-19T13:14:38.718Z,60.41
2017-12-19T13:15:41.254Z,60.46
2017-12-19T13:16:43.718Z,60.51
2017-12-19T13:17:46.320Z,60.54
2017-12-19T13:18:48.824Z,60.51
2017-12-19T13:19:51.296Z,60.50
2017-12-19T13:20:53.781Z,60.50
2017-12-19T13:21:56.271Z,60.47
2017-12-19T13:22:58.763Z,60.51
2017-12-19T13:24:01.241Z,60.51
2017-12-19T13:25:03.729Z,60.51